• Join FlightAware (Why Join?)
  • Login
  • US Flag 
10:19AM EDT


 

Airport Tracker/Info


-or-


 

Live Flight TrackerFlight Track Log ✈ UAL708 ✈ 19-Apr-2013 ✈ KIAH - KDEN

Flight Track Log - Related Links

Times and Time Zones

All times are in EDT time to prevent confusion due to time zone crossing. See the UAL708 flight status page for this flight to view local times or setup timezone preferences in your user account.

Time Position Orientation Groundspeed Altitude Reporting Facility
EDT Latitude Longitude Course Direction KTS MPH feet Rate Location/Type
07:19AM 29.9861 -95.3575 334° Northwest 170 196 900  Level Houston Center
07:21AM 30.0369 -95.3625 355° North 182 209 3,500 2,700 Climbing Houston Center
07:22AM 30.2566 -95.4981 334° Northwest  Level FlightAware Approximate
07:22AM 30.1056 -95.3933 339° North 224 258 6,900  Level Houston Center
07:23AM 30.3494 -95.5497 334° Northwest  Level FlightAware Approximate
07:23AM 30.1647 -95.4264 334° Northwest 233 268 10,000  Level Houston Center
07:24AM 30.4422 -95.6012 334° Northwest  Level FlightAware Approximate
07:24AM 30.2342 -95.4658 334° Northwest 268 308 11,800  Level Houston Center
07:25AM 30.5357 -95.6513 334° Northwest  Level FlightAware Approximate
07:25AM 30.3186 -95.5181 332° Northwest 323 372 13,300  Level Houston Center
07:26AM 30.4142 -95.5736 333° Northwest 381 438 14,900 2,160 Climbing Houston Center
07:27AM 30.5158 -95.6353 332° Northwest 408 470 17,800 2,520 Climbing Houston Center
07:28AM 30.6172 -95.6914 335° Northwest 408 470 20,100 1,800 Climbing Houston Center
07:29AM 30.7325 -95.7531 335° Northwest 436 502 21,500 1,620 Climbing Houston Center
07:30AM 30.8508 -95.8150 336° Northwest 458 527 23,400 2,100 Climbing Houston Center
07:31AM 30.9672 -95.8739 337° Northwest 456 525 25,800 1,800 Climbing Houston Center
07:32AM 31.0856 -95.9339 337° Northwest 459 528 27,100 1,080 Climbing Houston Center
07:33AM 31.2050 -95.9969 336° Northwest 468 539 28,000 540 Climbing Houston Center
07:34AM 31.3319 -96.0486 341° North 477 549 28,200 1,380 Climbing Houston Center
07:35AM 31.4589 -96.0956 342° North 478 550 30,800 1,800 Climbing Houston Center
07:36AM 31.5786 -96.1392 343° North 454 522 31,900 540 Climbing Houston Center
07:37AM 31.7028 -96.1889 341° North 464 534 32,000 60 Climbing Houston Center
07:38AM 31.8511 -96.2664 336° Northwest 467 537 32,100  Climbing Fort Worth Center
07:39AM 31.9644 -96.3286 335° Northwest 450 518 32,000 -60 Descending Fort Worth Center
07:40AM 32.0778 -96.3958 333° Northwest 450 518 32,000  Level Fort Worth Center
07:41AM 32.1806 -96.4561 334° Northwest 450 518 32,000  Level Fort Worth Center
07:42AM 32.2936 -96.5214 334° Northwest 450 518 32,000  Level Fort Worth Center
07:43AM 32.4069 -96.5892 333° Northwest 457 526 32,000  Level Fort Worth Center
07:44AM 32.5200 -96.6544 334° Northwest 457 526 32,000  Level Fort Worth Center
07:45AM 32.6311 -96.7253 332° Northwest 457 526 32,000  Level Fort Worth Center
07:46AM 32.7442 -96.7933 333° Northwest 452 520 32,100  Climbing Fort Worth Center
07:47AM 32.8656 -96.8692 332° Northwest 452 520 32,000  Descending Fort Worth Center
07:48AM 32.9639 -96.9281 333° Northwest 445 512 32,100  Climbing Fort Worth Center
07:49AM 33.0769 -96.9969 333° Northwest 445 512 32,100  Level Fort Worth Center
07:50AM 33.1878 -97.0658 333° Northwest 450 518 32,100 -60 Level Fort Worth Center
07:51AM 33.2986 -97.1350 332° Northwest 450 518 32,000 -60 Descending Fort Worth Center
07:52AM 33.4094 -97.2044 332° Northwest 450 518 32,000  Level Fort Worth Center
07:53AM 33.5306 -97.2789 333° Northwest 450 518 32,000  Level Fort Worth Center
07:54AM 33.6433 -97.3486 333° Northwest 450 518 32,000  Level Fort Worth Center
07:55AM 33.7497 -97.4161 332° Northwest 444 511 32,000  Level Fort Worth Center
07:56AM 33.8625 -97.4836 334° Northwest 444 511 32,000  Level Fort Worth Center
07:57AM 33.9708 -97.5536 332° Northwest 439 505 32,000  Level Fort Worth Center
07:58AM 34.0792 -97.6217 333° Northwest 434 499 32,100  Climbing Fort Worth Center
07:59AM 34.1814 -97.6922 330° Northwest 434 499 32,000 -120 Descending Fort Worth Center
08:00AM 34.2897 -97.7578 333° Northwest 434 499 31,900  Descending Fort Worth Center
08:01AM 34.4000 -97.8264 333° Northwest 434 499 32,000  Climbing Fort Worth Center
08:02AM 34.5103 -97.9000 331° Northwest 439 505 32,000  Level Fort Worth Center
08:03AM 34.6164 -97.9711 331° Northwest 439 505 32,000  Level Fort Worth Center
08:04AM 34.7289 -98.0453 332° Northwest 439 505 32,000  Level Fort Worth Center
08:05AM 34.8347 -98.1169 331° Northwest 439 505 32,000  Level Fort Worth Center
08:06AM 34.9386 -98.1961 328° Northwest 439 505 32,000  Level Fort Worth Center
08:07AM 35.0425 -98.2783 327° Northwest 439 505 32,000  Level Fort Worth Center
08:08AM 35.1233 -98.3478 325° Northwest 439 505 32,000  Level Fort Worth Center
08:09AM 35.2331 -98.4353 327° Northwest 439 505 32,000  Level Fort Worth Center
08:10AM 35.3450 -98.5206 328° Northwest 439 505 32,000  Level Fort Worth Center
08:12AM 35.5614 -98.7067 325° Northwest 428 493 32,000  Level Kansas City Center
08:13AM 35.6797 -98.8025 327° Northwest 424 488 32,000  Level Kansas City Center
08:14AM 35.7606 -98.8686 326° Northwest 426 490 32,000  Level Kansas City Center
08:15AM 35.8769 -98.9686 325° Northwest 425 489 32,000  Level Kansas City Center
08:16AM 35.9756 -99.0533 325° Northwest 429 494 32,000  Level Kansas City Center
08:17AM 36.0750 -99.1358 326° Northwest 430 495 32,100  Climbing Kansas City Center
08:18AM 36.1753 -99.2197 326° Northwest 433 498 32,000 -60 Descending Kansas City Center
08:19AM 36.2661 -99.2939 327° Northwest 431 496 32,000  Level Kansas City Center
08:21AM 36.3650 -99.3731 327° Northwest 425 489 32,000  Level Kansas City Center
08:22AM 36.4625 -99.4558 326° Northwest 422 486 32,000  Level Kansas City Center
08:23AM 36.5803 -99.5567 326° Northwest 427 491 32,000  Level Kansas City Center
08:24AM 36.6778 -99.6397 326° Northwest 424 488 32,000  Level Kansas City Center
08:25AM 36.7756 -99.7236 326° Northwest 424 488 32,000  Level Kansas City Center
08:26AM 36.8719 -99.8089 325° Northwest 424 488 32,000  Level Kansas City Center
08:27AM 36.9697 -99.8942 325° Northwest 427 491 32,000  Level Kansas City Center
08:28AM 37.0614 -99.9742 325° Northwest 425 489 32,000  Level Kansas City Center
08:29AM 37.1706 -100.0675 326° Northwest 425 489 32,000  Level Kansas City Center
08:30AM 37.2639 -100.1483 325° Northwest 425 489 32,000  Level Kansas City Center
08:31AM 37.3728 -100.2425 326° Northwest 426 490 32,000  Level Kansas City Center
08:32AM 37.4589 -100.3350 320° Northwest 427 491 32,000  Level Kansas City Center
08:33AM 37.5314 -100.4447 310° West 427 491 32,000  Level Kansas City Center
08:34AM 37.6069 -100.5569 310° West 429 494 32,000  Level Kansas City Center
08:35AM 37.6836 -100.6725 310° West 428 493 32,000  Level Kansas City Center
08:36AM 37.7742 -100.8128 309° West 427 491 32,000  Level Kansas City Center
08:37AM 37.8431 -100.9164 310° West 422 486 32,000  Level Kansas City Center
08:37AM 37.8925 -100.9878 311° West 422 486 32,000  Level Denver Center
08:38AM 37.9778 -101.1156 310° West 425 489 32,000  Level Denver Center
08:40AM 38.0497 -101.2244 310° West 423 487 32,000  Level Denver Center
08:41AM 38.1347 -101.3533 310° West 427 491 32,000  Level Denver Center
08:42AM 38.2058 -101.4653 309° West 426 490 32,000  Level Denver Center
08:43AM 38.2661 -101.5889 302° West 427 491 32,000  Level Denver Center
08:44AM 38.3361 -101.7308 302° West 425 489 32,000  Level Denver Center
08:45AM 38.3972 -101.8519 303° West 426 490 32,000  Level Denver Center
08:46AM 38.4581 -101.9744 302° West 426 490 32,000  Level Denver Center
08:47AM 38.5267 -102.1178 301° West 422 486 32,000  Level Denver Center
08:48AM 38.5878 -102.2394 303° West 425 489 32,000  Level Denver Center
08:49AM 38.6481 -102.3625 302° West 427 491 32,000  Level Denver Center
08:50AM 38.7172 -102.5072 302° West 427 491 32,000  Level Denver Center
08:51AM 38.7769 -102.6303 302° West 426 490 32,000  Level Denver Center
08:52AM 38.8392 -102.7575 302° West 430 495 32,000 -660 Level Denver Center
08:53AM 38.8997 -102.8869 301° West 420 483 30,700 -2,760 Descending Denver Center
08:54AM 38.9642 -103.0147 303° West 422 486 26,400 -3,540 Descending Denver Center
08:55AM 39.0275 -103.1414 303° West 419 482 23,600 -2,580 Descending Denver Center
08:56AM 39.0836 -103.2606 301° West 387 445 21,200 -2,160 Descending Denver Center
08:57AM 39.1389 -103.3806 301° West 386 444 19,300 -1,920 Descending Denver Center
08:58AM 39.1914 -103.4989 300° West 378 435 17,300 -1,140 Descending Denver Center
08:59AM 39.2439 -103.6081 302° West 360 414 17,000 -240 Descending Denver Center
09:00AM 39.2811 -103.6892 301° West 326 375 16,900 -60 Descending Denver Center
09:01AM 39.3303 -103.7917 302° West 292 336 16,900  Level Denver Center
09:02AM 39.3661 -103.8825 297° West 283 326 17,000 -540 Climbing Denver Center
09:03AM 39.3922 -103.9906 287° West 278 320 15,900 -1,140 Descending Denver Center
09:04AM 39.4183 -104.0886 289° West 284 327 14,700 -1,140 Descending Denver Center
09:05AM 39.4739 -104.1378 326° Northwest 256 295 13,700 -780 Descending Denver Center
09:06AM 39.5372 -104.1444 355° North 224 258 13,200 -360 Descending Denver Center
09:07AM 39.5947 -104.1525 354° North 210 242 13,000 -720 Descending Denver Center
09:08AM 39.6503 -104.1850 336° Northwest 206 237 11,800 -1,200 Descending Denver Center
09:09AM 39.7033 -104.2222 332° Northwest 214 246 10,600 -1,200 Descending Denver Center
09:10AM 39.7411 -104.2786 311° West 212 244 9,400 -1,320 Descending Denver Center
09:11AM 39.7800 -104.3389 310° West 214 246 8,000 -960 Descending Denver Center
09:12AM 39.8181 -104.4019 308° West 226 260 7,500 -540 Descending Denver Center